createdAt,value
2017-08-30T00:01:19.488Z,12.20
2017-08-30T00:03:48.038Z,12.20
2017-08-30T00:06:16.566Z,12.20
2017-08-30T00:08:45.221Z,12.30
2017-08-30T00:11:13.798Z,12.20
2017-08-30T00:13:42.261Z,12.20
2017-08-30T00:16:10.851Z,12.20
2017-08-30T00:18:39.414Z,12.20
2017-08-30T00:21:07.982Z,12.10
2017-08-30T00:23:49.014Z,12.10
2017-08-30T00:26:26.757Z,12.10
2017-08-30T00:28:55.398Z,12.10
2017-08-30T00:31:23.622Z,12.10
2017-08-30T00:33:52.346Z,12.10
2017-08-30T00:36:20.270Z,12.20
2017-08-30T00:38:48.884Z,12.10
2017-08-30T00:41:17.463Z,12.10
2017-08-30T00:43:46.069Z,12.00
2017-08-30T00:46:14.835Z,12.10
2017-08-30T00:48:43.386Z,12.00
2017-08-30T00:51:11.735Z,12.10
2017-08-30T00:53:40.254Z,12.10
2017-08-30T00:56:09.640Z,12.10
2017-08-30T00:58:37.966Z,12.00
2017-08-30T01:01:06.221Z,12.00
2017-08-30T01:03:34.848Z,12.00
2017-08-30T01:06:03.182Z,11.90
2017-08-30T01:08:32.830Z,11.90
2017-08-30T01:11:01.438Z,11.80
2017-08-30T01:13:30.042Z,11.80
2017-08-30T01:15:58.678Z,11.80
2017-08-30T01:18:27.444Z,11.80
2017-08-30T01:20:56.020Z,11.80
2017-08-30T01:23:24.642Z,11.80
2017-08-30T01:25:53.207Z,11.80
2017-08-30T01:28:22.011Z,11.80
2017-08-30T01:30:50.730Z,11.80
2017-08-30T01:33:19.198Z,11.80
2017-08-30T01:35:48.484Z,11.80
2017-08-30T01:38:18.788Z,11.80
2017-08-30T01:40:48.244Z,11.70
2017-08-30T01:43:26.059Z,11.70
2017-08-30T01:45:54.638Z,11.80
2017-08-30T01:48:23.166Z,11.80
2017-08-30T01:50:56.407Z,11.80
2017-08-30T01:56:06.078Z,11.80
2017-08-30T01:58:34.759Z,11.80
2017-08-30T02:01:03.707Z,11.80
2017-08-30T02:03:32.515Z,11.70
2017-08-30T02:06:01.290Z,11.70
2017-08-30T02:08:31.525Z,11.80
2017-08-30T02:11:02.358Z,11.80
2017-08-30T02:18:45.279Z,11.70
2017-08-30T02:29:16.067Z,11.60
2017-08-30T02:37:50.108Z,11.60
2017-08-30T02:45:35.830Z,11.40
2017-08-30T02:48:09.630Z,11.40
2017-08-30T02:50:39.392Z,11.40
2017-08-30T02:53:10.443Z,11.50
2017-08-30T02:55:40.577Z,11.40
2017-08-30T02:58:11.973Z,11.40
2017-08-30T03:00:42.615Z,11.40
2017-08-30T03:03:14.893Z,11.40
2017-08-30T03:05:44.587Z,11.40
2017-08-30T03:08:39.130Z,11.30
2017-08-30T03:11:09.848Z,11.30
2017-08-30T03:13:40.234Z,11.30
2017-08-30T03:16:09.424Z,11.20
2017-08-30T03:18:38.871Z,11.10
2017-08-30T03:21:07.556Z,11.10
2017-08-30T03:23:37.921Z,11.10
2017-08-30T03:26:06.896Z,11.10
2017-08-30T03:28:35.708Z,11.10
2017-08-30T03:31:06.320Z,11.10
2017-08-30T03:33:39.704Z,11.00
2017-08-30T03:36:11.453Z,11.00
2017-08-30T03:42:05.459Z,11.00
2017-08-30T03:49:51.444Z,10.80
2017-08-30T04:11:13.598Z,10.60
2017-08-30T04:16:15.871Z,10.60
2017-08-30T04:30:13.890Z,10.80
2017-08-30T04:40:25.122Z,10.80
2017-08-30T04:42:55.990Z,10.90
2017-08-30T04:45:42.858Z,10.90
2017-08-30T05:00:33.614Z,11.10
2017-08-30T05:56:45.212Z,14.80
2017-08-30T05:59:13.916Z,15.00
2017-08-30T06:01:42.434Z,15.20
2017-08-30T06:04:43.476Z,15.40
2017-08-30T06:07:12.900Z,15.80
2017-08-30T06:09:41.946Z,16.20
2017-08-30T06:12:12.630Z,16.50
2017-08-30T06:14:42.272Z,16.80
2017-08-30T06:17:10.828Z,17.00
2017-08-30T06:19:39.706Z,17.10
2017-08-30T06:22:10.505Z,17.40
2017-08-30T06:24:39.134Z,17.60
2017-08-30T06:27:07.702Z,17.80
2017-08-30T06:29:36.304Z,18.10
2017-08-30T06:32:05.154Z,18.20
2017-08-30T06:34:33.808Z,18.90
2017-08-30T06:37:02.444Z,19.50
2017-08-30T06:39:31.703Z,20.20
2017-08-30T06:42:00.028Z,20.70
2017-08-30T06:44:29.517Z,21.30
2017-08-30T06:46:58.895Z,21.90
2017-08-30T06:49:28.128Z,22.20
2017-08-30T06:51:56.463Z,22.40
2017-08-30T06:54:26.278Z,22.60
2017-08-30T06:56:56.069Z,22.70
2017-08-30T06:59:24.754Z,22.60
2017-08-30T07:01:55.029Z,22.90
2017-08-30T07:04:25.695Z,23.00
2017-08-30T07:06:59.981Z,23.30
2017-08-30T07:09:30.457Z,23.30
2017-08-30T07:14:34.576Z,23.70
2017-08-30T07:17:03.019Z,24.10
2017-08-30T07:19:32.331Z,24.50
2017-08-30T07:27:30.455Z,25.20
2017-08-30T07:30:21.630Z,25.80
2017-08-30T07:42:02.752Z,27.30
2017-08-30T07:55:15.380Z,30.50
2017-08-30T07:57:43.999Z,30.50
2017-08-30T08:00:22.718Z,31.10
2017-08-30T08:03:03.146Z,31.60
2017-08-30T08:19:21.471Z,31.90
2017-08-30T08:21:57.606Z,33.40
2017-08-30T08:29:49.402Z,33.30
2017-08-30T08:32:22.571Z,33.90
2017-08-30T08:34:51.255Z,33.70
2017-08-30T08:37:20.029Z,33.80
2017-08-30T08:39:57.751Z,33.30
2017-08-30T08:42:34.558Z,33.90
2017-08-30T08:45:19.046Z,34.20
2017-08-30T08:56:32.107Z,34.90
2017-08-30T09:02:03.671Z,34.40
2017-08-30T09:13:41.047Z,36.00
2017-08-30T09:16:10.363Z,35.40
2017-08-30T09:22:03.450Z,35.50
2017-08-30T09:40:44.867Z,35.20
2017-08-30T09:43:21.818Z,34.50
2017-08-30T09:48:57.887Z,34.70
2017-08-30T09:51:33.251Z,35.40
2017-08-30T09:54:16.447Z,35.80
2017-08-30T10:18:04.436Z,37.00
2017-08-30T10:21:08.575Z,37.10
2017-08-30T10:58:13.609Z,35.90
2017-08-30T11:00:59.771Z,35.60
2017-08-30T11:03:30.214Z,36.60
2017-08-30T11:06:00.796Z,35.70
2017-08-30T11:08:51.772Z,35.70
2017-08-30T11:29:04.813Z,36.80
2017-08-30T11:31:33.447Z,36.00
2017-08-30T11:34:05.510Z,36.20
2017-08-30T11:36:34.161Z,36.30
2017-08-30T11:39:03.542Z,36.60
2017-08-30T11:41:32.830Z,36.10
2017-08-30T11:47:23.149Z,36.40
2017-08-30T11:49:51.923Z,36.50
2017-08-30T11:55:59.578Z,36.70
2017-08-30T11:58:28.134Z,37.00
2017-08-30T12:01:01.595Z,36.60
2017-08-30T12:03:30.186Z,36.60
2017-08-30T12:06:00.752Z,35.50
2017-08-30T12:08:42.834Z,35.90
2017-08-30T12:11:14.822Z,35.00
2017-08-30T12:13:48.177Z,35.10
2017-08-30T12:16:19.214Z,34.50
2017-08-30T12:18:49.420Z,34.60
2017-08-30T12:21:20.730Z,34.90
2017-08-30T12:24:25.744Z,35.00
2017-08-30T12:26:59.008Z,35.30
2017-08-30T12:29:33.807Z,35.00
2017-08-30T12:32:07.576Z,34.80
2017-08-30T12:34:47.446Z,34.60
2017-08-30T12:37:25.116Z,34.00
2017-08-30T12:39:54.200Z,34.40
2017-08-30T12:42:22.716Z,34.60
2017-08-30T12:44:52.229Z,34.60
2017-08-30T12:47:23.609Z,33.60
2017-08-30T12:49:59.325Z,33.90
2017-08-30T12:52:38.666Z,33.50
2017-08-30T12:57:46.627Z,33.00
2017-08-30T13:00:15.167Z,33.40
2017-08-30T13:02:43.727Z,33.30
2017-08-30T13:05:19.254Z,32.70
2017-08-30T13:07:47.840Z,32.30
2017-08-30T13:10:26.430Z,32.70
2017-08-30T13:18:14.162Z,32.30
2017-08-30T13:21:06.380Z,31.80
2017-08-30T13:26:31.571Z,31.90
2017-08-30T13:32:42.456Z,31.20
2017-08-30T13:37:58.080Z,30.30
2017-08-30T14:02:29.762Z,29.70
2017-08-30T14:07:54.583Z,29.60
2017-08-30T14:13:37.795Z,28.90
2017-08-30T14:22:15.035Z,28.70
2017-08-30T14:37:02.827Z,28.90
2017-08-30T14:39:34.769Z,28.70
2017-08-30T14:42:07.825Z,28.40
2017-08-30T14:53:24.498Z,28.20
2017-08-30T14:55:53.733Z,28.10
2017-08-30T14:58:25.227Z,28.10
2017-08-30T15:06:17.905Z,27.90
2017-08-30T15:18:38.746Z,27.70
2017-08-30T15:22:03.360Z,27.50
2017-08-30T15:29:51.062Z,27.20
2017-08-30T15:35:19.765Z,26.90
2017-08-30T15:44:28.462Z,26.60
2017-08-30T15:46:58.286Z,26.40
2017-08-30T15:49:27.206Z,26.30
2017-08-30T15:51:57.469Z,26.20
2017-08-30T15:54:41.980Z,26.10
2017-08-30T15:57:10.786Z,25.80
2017-08-30T15:59:47.613Z,25.70
2017-08-30T16:02:19.766Z,25.50
2017-08-30T16:21:21.843Z,24.20
2017-08-30T16:23:51.675Z,24.00
2017-08-30T16:26:45.713Z,23.80
2017-08-30T16:29:15.278Z,23.50
2017-08-30T16:35:17.492Z,22.90
2017-08-30T16:40:50.799Z,22.40
2017-08-30T16:46:28.417Z,22.10
2017-08-30T16:49:04.527Z,21.90
2017-08-30T16:56:58.336Z,21.40
2017-08-30T17:14:43.782Z,20.60
2017-08-30T17:17:21.110Z,20.40
2017-08-30T17:35:03.715Z,19.60
2017-08-30T17:37:40.073Z,19.40
2017-08-30T17:49:01.098Z,18.90
2017-08-30T17:59:56.656Z,18.40
2017-08-30T18:02:42.690Z,18.30
2017-08-30T18:05:11.348Z,18.30
2017-08-30T18:07:50.035Z,18.20
2017-08-30T18:10:50.900Z,18.10
2017-08-30T19:17:33.906Z,16.50
2017-08-30T19:20:04.535Z,16.60
2017-08-30T19:22:41.960Z,16.50
2017-08-30T19:25:20.304Z,16.40
2017-08-30T19:27:49.699Z,16.50
2017-08-30T19:30:24.146Z,16.40
2017-08-30T19:32:52.962Z,16.30
2017-08-30T19:35:21.582Z,16.30
2017-08-30T19:37:50.128Z,16.20
2017-08-30T19:40:25.406Z,16.20
2017-08-30T19:49:53.543Z,16.00
2017-08-30T19:52:29.304Z,15.90
2017-08-30T19:57:59.112Z,15.80
2017-08-30T20:00:37.822Z,15.80
2017-08-30T20:07:10.557Z,15.70
2017-08-30T20:09:42.393Z,15.60
2017-08-30T20:15:52.973Z,15.50
2017-08-30T20:18:31.518Z,15.40
2017-08-30T20:29:25.923Z,15.30
2017-08-30T20:32:04.146Z,15.30
2017-08-30T20:34:40.526Z,15.30
2017-08-30T20:37:09.116Z,15.20
2017-08-30T20:39:51.764Z,15.20
2017-08-30T20:42:20.235Z,15.20
2017-08-30T20:44:49.630Z,15.20
2017-08-30T20:53:27.363Z,15.10
2017-08-30T20:58:37.385Z,14.90
2017-08-30T21:04:32.289Z,14.90
2017-08-30T21:09:39.062Z,14.90
2017-08-30T21:17:26.290Z,14.80
2017-08-30T21:22:43.435Z,14.80
2017-08-30T21:25:12.104Z,14.70
2017-08-30T21:31:17.896Z,14.60
2017-08-30T21:33:46.706Z,14.60
2017-08-30T21:41:48.620Z,14.50
2017-08-30T21:57:04.642Z,14.50
2017-08-30T22:03:04.796Z,14.40
2017-08-30T22:05:44.645Z,14.40
2017-08-30T22:11:06.542Z,14.40
2017-08-30T22:13:36.242Z,14.30
2017-08-30T22:19:08.030Z,14.30
2017-08-30T22:21:36.536Z,14.30
2017-08-30T22:27:52.481Z,14.30
2017-08-30T22:36:52.060Z,14.20
2017-08-30T22:42:02.826Z,14.10
2017-08-30T22:44:37.592Z,14.10
2017-08-30T22:47:16.682Z,14.10
2017-08-30T22:55:34.050Z,14.10
2017-08-30T23:05:09.513Z,14.10
2017-08-30T23:13:05.106Z,14.00
2017-08-30T23:15:41.500Z,14.00
2017-08-30T23:21:05.256Z,14.00
2017-08-30T23:23:42.707Z,13.90
2017-08-30T23:32:14.690Z,14.00
2017-08-30T23:34:52.456Z,14.00
2017-08-30T23:57:20.352Z,13.80
